sensor_id;sensor_type;location;lat;lon;timestamp;pressure;altitude;pressure_sealevel;temperature;humidity
50464;BME280;62167;38.552;-121.478;2022-09-02T00:01:42;100553.03;;;39.55;14.48
50464;BME280;62167;38.552;-121.478;2022-09-02T00:04:10;100554.56;;;39.52;14.89
50464;BME280;62167;38.552;-121.478;2022-09-02T00:06:36;100564.31;;;39.55;14.70
50464;BME280;62167;38.552;-121.478;2022-09-02T00:09:03;100558.97;;;39.50;14.26
50464;BME280;62167;38.552;-121.478;2022-09-02T00:11:30;100551.22;;;39.47;14.04
50464;BME280;62167;38.552;-121.478;2022-09-02T00:13:57;100554.47;;;39.49;14.74
50464;BME280;62167;38.552;-121.478;2022-09-02T00:16:23;100552.84;;;39.48;14.75
50464;BME280;62167;38.552;-121.478;2022-09-02T00:18:49;100556.03;;;39.46;14.70
50464;BME280;62167;38.552;-121.478;2022-09-02T00:21:16;100551.94;;;39.43;14.54
50464;BME280;62167;38.552;-121.478;2022-09-02T00:23:43;100555.13;;;39.42;15.42
50464;BME280;62167;38.552;-121.478;2022-09-02T00:26:09;100554.22;;;39.38;15.02
50464;BME280;62167;38.552;-121.478;2022-09-02T00:28:35;100536.50;;;39.37;14.37
50464;BME280;62167;38.552;-121.478;2022-09-02T00:31:01;100543.31;;;39.36;14.28
50464;BME280;62167;38.552;-121.478;2022-09-02T00:33:27;100538.22;;;39.26;14.40
50464;BME280;62167;38.552;-121.478;2022-09-02T00:35:53;100533.31;;;39.23;14.79
50464;BME280;62167;38.552;-121.478;2022-09-02T00:38:18;100536.97;;;39.24;14.95
50464;BME280;62167;38.552;-121.478;2022-09-02T00:40:46;100535.31;;;39.23;14.97
50464;BME280;62167;38.552;-121.478;2022-09-02T00:43:20;100529.47;;;39.15;14.61
50464;BME280;62167;38.552;-121.478;2022-09-02T00:45:46;100529.38;;;39.12;14.66
50464;BME280;62167;38.552;-121.478;2022-09-02T00:48:12;100533.28;;;39.07;16.11
50464;BME280;62167;38.552;-121.478;2022-09-02T00:50:38;100539.31;;;39.06;15.54
50464;BME280;62167;38.552;-121.478;2022-09-02T00:53:05;100539.56;;;39.01;15.90
50464;BME280;62167;38.552;-121.478;2022-09-02T00:55:40;100541.94;;;38.99;15.85
50464;BME280;62167;38.552;-121.478;2022-09-02T00:58:13;100538.56;;;38.93;15.47
50464;BME280;62167;38.552;-121.478;2022-09-02T01:00:40;100539.00;;;38.79;15.10
50464;BME280;62167;38.552;-121.478;2022-09-02T01:03:09;100537.28;;;38.75;15.14
50464;BME280;62167;38.552;-121.478;2022-09-02T01:05:37;100539.50;;;38.69;15.95
50464;BME280;62167;38.552;-121.478;2022-09-02T01:08:04;100538.06;;;38.47;16.59
50464;BME280;62167;38.552;-121.478;2022-09-02T01:10:33;100533.28;;;38.48;15.90
50464;BME280;62167;38.552;-121.478;2022-09-02T01:13:01;100539.19;;;38.42;16.09
50464;BME280;62167;38.552;-121.478;2022-09-02T01:15:31;100536.13;;;38.35;16.37
50464;BME280;62167;38.552;-121.478;2022-09-02T01:17:57;100532.41;;;38.19;16.35
50464;BME280;62167;38.552;-121.478;2022-09-02T01:20:25;100536.56;;;38.09;16.81
50464;BME280;62167;38.552;-121.478;2022-09-02T01:22:51;100533.28;;;38.07;17.29
50464;BME280;62167;38.552;-121.478;2022-09-02T01:25:20;100531.78;;;37.98;18.27
50464;BME280;62167;38.552;-121.478;2022-09-02T01:27:46;100534.28;;;37.87;17.89
50464;BME280;62167;38.552;-121.478;2022-09-02T01:30:17;100540.69;;;37.75;18.01
50464;BME280;62167;38.552;-121.478;2022-09-02T01:32:43;100531.09;;;37.64;18.80
50464;BME280;62167;38.552;-121.478;2022-09-02T01:35:09;100529.38;;;37.47;19.13
50464;BME280;62167;38.552;-121.478;2022-09-02T01:37:37;100528.78;;;37.42;18.78
50464;BME280;62167;38.552;-121.478;2022-09-02T01:40:07;100530.06;;;37.32;19.11
50464;BME280;62167;38.552;-121.478;2022-09-02T01:42:33;100521.72;;;37.23;19.51
50464;BME280;62167;38.552;-121.478;2022-09-02T01:44:59;100525.00;;;37.13;19.81
50464;BME280;62167;38.552;-121.478;2022-09-02T01:47:26;100526.84;;;36.97;19.81
50464;BME280;62167;38.552;-121.478;2022-09-02T01:49:52;100523.66;;;36.86;20.37
50464;BME280;62167;38.552;-121.478;2022-09-02T01:52:19;100518.13;;;36.77;20.98
50464;BME280;62167;38.552;-121.478;2022-09-02T01:54:45;100518.44;;;36.63;20.96
50464;BME280;62167;38.552;-121.478;2022-09-02T01:57:12;100523.94;;;36.60;21.75
50464;BME280;62167;38.552;-121.478;2022-09-02T01:59:38;100518.25;;;36.48;22.04
50464;BME280;62167;38.552;-121.478;2022-09-02T02:02:03;100517.91;;;36.28;21.87
50464;BME280;62167;38.552;-121.478;2022-09-02T02:04:29;100515.53;;;36.18;22.09
50464;BME280;62167;38.552;-121.478;2022-09-02T02:06:55;100522.06;;;36.10;22.30
50464;BME280;62167;38.552;-121.478;2022-09-02T02:09:21;100520.41;;;36.09;22.19
50464;BME280;62167;38.552;-121.478;2022-09-02T02:11:47;100518.50;;;36.01;22.73
50464;BME280;62167;38.552;-121.478;2022-09-02T02:14:13;100514.69;;;35.76;23.01
50464;BME280;62167;38.552;-121.478;2022-09-02T02:16:39;100511.75;;;35.72;23.06
50464;BME280;62167;38.552;-121.478;2022-09-02T02:19:05;100519.19;;;35.68;23.43
50464;BME280;62167;38.552;-121.478;2022-09-02T02:21:31;100517.28;;;35.60;23.85
50464;BME280;62167;38.552;-121.478;2022-09-02T02:23:57;100516.03;;;35.49;24.36
50464;BME280;62167;38.552;-121.478;2022-09-02T02:26:26;100509.75;;;35.43;24.30
50464;BME280;62167;38.552;-121.478;2022-09-02T02:28:52;100514.91;;;35.32;23.86
50464;BME280;62167;38.552;-121.478;2022-09-02T02:31:18;100515.81;;;35.16;24.15
50464;BME280;62167;38.552;-121.478;2022-09-02T02:33:44;100513.75;;;35.04;24.56
50464;BME280;62167;38.552;-121.478;2022-09-02T02:36:12;100511.78;;;34.87;24.95
50464;BME280;62167;38.552;-121.478;2022-09-02T02:38:38;100521.22;;;34.74;25.10
50464;BME280;62167;38.552;-121.478;2022-09-02T02:41:04;100521.22;;;34.56;25.39
50464;BME280;62167;38.552;-121.478;2022-09-02T02:43:31;100524.84;;;34.40;25.10
50464;BME280;62167;38.552;-121.478;2022-09-02T02:45:57;100526.34;;;34.28;25.58
50464;BME280;62167;38.552;-121.478;2022-09-02T02:48:23;100529.66;;;34.13;26.13
50464;BME280;62167;38.552;-121.478;2022-09-02T02:50:49;100534.75;;;34.02;26.09
50464;BME280;62167;38.552;-121.478;2022-09-02T02:53:15;100538.13;;;33.91;26.63
50464;BME280;62167;38.552;-121.478;2022-09-02T02:55:41;100540.09;;;33.73;26.69
50464;BME280;62167;38.552;-121.478;2022-09-02T02:58:07;100546.16;;;33.66;27.45
50464;BME280;62167;38.552;-121.478;2022-09-02T03:00:34;100548.25;;;33.52;27.27
50464;BME280;62167;38.552;-121.478;2022-09-02T03:03:03;100548.34;;;33.38;27.47
50464;BME280;62167;38.552;-121.478;2022-09-02T03:05:29;100546.31;;;33.21;27.71
50464;BME280;62167;38.552;-121.478;2022-09-02T03:07:55;100548.50;;;33.02;28.52
50464;BME280;62167;38.552;-121.478;2022-09-02T03:10:21;100545.78;;;32.88;28.33
50464;BME280;62167;38.552;-121.478;2022-09-02T03:12:48;100549.78;;;32.73;28.55
50464;BME280;62167;38.552;-121.478;2022-09-02T03:15:16;100554.69;;;32.68;28.51
50464;BME280;62167;38.552;-121.478;2022-09-02T03:17:42;100553.63;;;32.55;29.84
50464;BME280;62167;38.552;-121.478;2022-09-02T03:20:09;100550.31;;;32.53;30.86
50464;BME280;62167;38.552;-121.478;2022-09-02T03:22:35;100553.22;;;32.48;30.95
50464;BME280;62167;38.552;-121.478;2022-09-02T03:25:06;100557.91;;;32.39;29.84
50464;BME280;62167;38.552;-121.478;2022-09-02T03:27:32;100556.34;;;32.33;31.10
50464;BME280;62167;38.552;-121.478;2022-09-02T03:29:59;100550.72;;;32.24;30.51
50464;BME280;62167;38.552;-121.478;2022-09-02T03:32:25;100562.41;;;32.12;32.30
50464;BME280;62167;38.552;-121.478;2022-09-02T03:34:52;100561.38;;;32.08;30.95
50464;BME280;62167;38.552;-121.478;2022-09-02T03:37:18;100558.72;;;32.03;30.46
50464;BME280;62167;38.552;-121.478;2022-09-02T03:39:45;100565.03;;;31.95;30.76
50464;BME280;62167;38.552;-121.478;2022-09-02T03:42:10;100570.63;;;31.81;30.00
50464;BME280;62167;38.552;-121.478;2022-09-02T03:44:37;100579.06;;;31.76;30.07
50464;BME280;62167;38.552;-121.478;2022-09-02T03:47:05;100566.16;;;31.66;30.09
50464;BME280;62167;38.552;-121.478;2022-09-02T03:49:32;100575.78;;;31.60;30.94
50464;BME280;62167;38.552;-121.478;2022-09-02T03:51:58;100572.59;;;31.53;30.77
50464;BME280;62167;38.552;-121.478;2022-09-02T03:54:24;100575.78;;;31.46;30.57
50464;BME280;62167;38.552;-121.478;2022-09-02T03:56:50;100575.38;;;31.39;30.91
50464;BME280;62167;38.552;-121.478;2022-09-02T03:59:16;100579.19;;;31.30;30.89
50464;BME280;62167;38.552;-121.478;2022-09-02T04:01:42;100576.56;;;31.19;30.73
50464;BME280;62167;38.552;-121.478;2022-09-02T04:04:09;100586.13;;;31.13;30.45
50464;BME280;62167;38.552;-121.478;2022-09-02T04:06:35;100579.72;;;30.99;31.92
50464;BME280;62167;38.552;-121.478;2022-09-02T04:09:02;100580.72;;;30.89;31.86
50464;BME280;62167;38.552;-121.478;2022-09-02T04:11:28;100578.84;;;30.85;32.80
50464;BME280;62167;38.552;-121.478;2022-09-02T04:13:54;100573.47;;;30.74;31.36
50464;BME280;62167;38.552;-121.478;2022-09-02T04:16:21;100585.22;;;30.66;32.59
50464;BME280;62167;38.552;-121.478;2022-09-02T04:18:55;100588.81;;;30.53;32.10
50464;BME280;62167;38.552;-121.478;2022-09-02T04:21:23;100583.69;;;30.41;32.88
50464;BME280;62167;38.552;-121.478;2022-09-02T04:23:49;100583.75;;;30.36;32.42
50464;BME280;62167;38.552;-121.478;2022-09-02T04:26:17;100589.72;;;30.30;32.21
50464;BME280;62167;38.552;-121.478;2022-09-02T04:28:43;100585.75;;;30.17;32.49
50464;BME280;62167;38.552;-121.478;2022-09-02T04:31:11;100590.59;;;30.06;32.72
50464;BME280;62167;38.552;-121.478;2022-09-02T04:33:37;100597.94;;;29.97;33.11
50464;BME280;62167;38.552;-121.478;2022-09-02T04:36:04;100601.97;;;29.86;33.87
50464;BME280;62167;38.552;-121.478;2022-09-02T04:38:30;100595.63;;;29.80;33.05
50464;BME280;62167;38.552;-121.478;2022-09-02T04:40:56;100595.25;;;29.68;33.43
50464;BME280;62167;38.552;-121.478;2022-09-02T04:43:22;100599.28;;;29.57;33.49
50464;BME280;62167;38.552;-121.478;2022-09-02T04:45:49;100607.97;;;29.45;33.25
50464;BME280;62167;38.552;-121.478;2022-09-02T04:48:16;100599.16;;;29.38;33.30
50464;BME280;62167;38.552;-121.478;2022-09-02T04:50:43;100606.78;;;29.27;33.55
50464;BME280;62167;38.552;-121.478;2022-09-02T04:53:10;100604.69;;;29.14;33.80
50464;BME280;62167;38.552;-121.478;2022-09-02T04:55:39;100605.03;;;29.07;34.22
50464;BME280;62167;38.552;-121.478;2022-09-02T04:58:05;100600.41;;;28.98;34.63
50464;BME280;62167;38.552;-121.478;2022-09-02T05:00:31;100598.78;;;28.91;34.65
50464;BME280;62167;38.552;-121.478;2022-09-02T05:02:57;100601.59;;;28.86;35.28
50464;BME280;62167;38.552;-121.478;2022-09-02T05:05:23;100600.81;;;28.81;34.03
50464;BME280;62167;38.552;-121.478;2022-09-02T05:07:48;100601.41;;;28.73;34.60
50464;BME280;62167;38.552;-121.478;2022-09-02T05:10:14;100605.38;;;28.61;34.59
50464;BME280;62167;38.552;-121.478;2022-09-02T05:12:41;100600.19;;;28.55;34.91
50464;BME280;62167;38.552;-121.478;2022-09-02T05:15:07;100601.13;;;28.40;35.23
50464;BME280;62167;38.552;-121.478;2022-09-02T05:17:34;100608.34;;;28.31;35.80
50464;BME280;62167;38.552;-121.478;2022-09-02T05:20:02;100610.06;;;28.22;35.92
50464;BME280;62167;38.552;-121.478;2022-09-02T05:22:28;100595.94;;;28.18;36.35
50464;BME280;62167;38.552;-121.478;2022-09-02T05:24:55;100594.09;;;28.08;36.54
50464;BME280;62167;38.552;-121.478;2022-09-02T05:27:21;100599.34;;;28.05;36.55
50464;BME280;62167;38.552;-121.478;2022-09-02T05:29:47;100598.31;;;27.90;35.75
50464;BME280;62167;38.552;-121.478;2022-09-02T05:32:14;100599.97;;;27.86;34.59
50464;BME280;62167;38.552;-121.478;2022-09-02T05:34:40;100600.81;;;27.87;34.34
50464;BME280;62167;38.552;-121.478;2022-09-02T05:37:06;100609.13;;;27.82;33.78
50464;BME280;62167;38.552;-121.478;2022-09-02T05:39:32;100605.56;;;27.76;33.61
50464;BME280;62167;38.552;-121.478;2022-09-02T05:41:58;100601.44;;;27.68;33.18
50464;BME280;62167;38.552;-121.478;2022-09-02T05:44:24;100606.13;;;27.68;32.53
50464;BME280;62167;38.552;-121.478;2022-09-02T05:46:50;100600.34;;;27.59;31.63
50464;BME280;62167;38.552;-121.478;2022-09-02T05:49:16;100600.91;;;27.56;31.67
50464;BME280;62167;38.552;-121.478;2022-09-02T05:51:43;100605.06;;;27.54;31.78
50464;BME280;62167;38.552;-121.478;2022-09-02T05:54:13;100600.38;;;27.49;31.20
50464;BME280;62167;38.552;-121.478;2022-09-02T05:56:40;100604.25;;;27.48;31.34
50464;BME280;62167;38.552;-121.478;2022-09-02T05:59:06;100602.88;;;27.40;31.11
50464;BME280;62167;38.552;-121.478;2022-09-02T06:01:32;100604.56;;;27.36;31.21
50464;BME280;62167;38.552;-121.478;2022-09-02T06:03:58;100599.59;;;27.28;31.31
50464;BME280;62167;38.552;-121.478;2022-09-02T06:06:27;100601.56;;;27.23;30.67
50464;BME280;62167;38.552;-121.478;2022-09-02T06:08:53;100598.81;;;27.18;30.34
50464;BME280;62167;38.552;-121.478;2022-09-02T06:11:19;100596.59;;;27.09;30.13
50464;BME280;62167;38.552;-121.478;2022-09-02T06:13:46;100606.50;;;27.05;30.44
50464;BME280;62167;38.552;-121.478;2022-09-02T06:16:16;100614.81;;;26.95;30.42
50464;BME280;62167;38.552;-121.478;2022-09-02T06:18:43;100614.28;;;26.88;31.96
50464;BME280;62167;38.552;-121.478;2022-09-02T06:21:09;100616.75;;;26.84;31.93
50464;BME280;62167;38.552;-121.478;2022-09-02T06:23:36;100605.41;;;26.71;30.76
50464;BME280;62167;38.552;-121.478;2022-09-02T06:26:03;100600.72;;;26.66;31.46
50464;BME280;62167;38.552;-121.478;2022-09-02T06:28:29;100604.56;;;26.55;32.02
50464;BME280;62167;38.552;-121.478;2022-09-02T06:30:55;100606.22;;;26.51;32.92
50464;BME280;62167;38.552;-121.478;2022-09-02T06:33:22;100602.91;;;26.44;30.87
50464;BME280;62167;38.552;-121.478;2022-09-02T06:35:47;100599.56;;;26.36;31.40
50464;BME280;62167;38.552;-121.478;2022-09-02T06:38:13;100604.25;;;26.26;31.97
50464;BME280;62167;38.552;-121.478;2022-09-02T06:40:46;100606.72;;;26.22;32.28
50464;BME280;62167;38.552;-121.478;2022-09-02T06:43:13;100614.38;;;26.10;32.12
50464;BME280;62167;38.552;-121.478;2022-09-02T06:45:39;100622.09;;;26.03;32.04
50464;BME280;62167;38.552;-121.478;2022-09-02T06:48:05;100622.09;;;25.98;31.89
50464;BME280;62167;38.552;-121.478;2022-09-02T06:50:31;100622.88;;;25.88;33.32
50464;BME280;62167;38.552;-121.478;2022-09-02T06:52:57;100629.75;;;25.80;33.26
50464;BME280;62167;38.552;-121.478;2022-09-02T06:55:23;100634.66;;;25.73;32.73
50464;BME280;62167;38.552;-121.478;2022-09-02T06:57:49;100626.03;;;25.65;32.38
50464;BME280;62167;38.552;-121.478;2022-09-02T07:00:14;100638.94;;;25.54;33.70
50464;BME280;62167;38.552;-121.478;2022-09-02T07:02:41;100641.41;;;25.45;33.83
50464;BME280;62167;38.552;-121.478;2022-09-02T07:05:08;100629.50;;;25.40;34.23
50464;BME280;62167;38.552;-121.478;2022-09-02T07:07:38;100630.56;;;25.33;34.42
50464;BME280;62167;38.552;-121.478;2022-09-02T07:10:05;100635.47;;;25.26;33.90
50464;BME280;62167;38.552;-121.478;2022-09-02T07:12:35;100634.34;;;25.22;34.32
50464;BME280;62167;38.552;-121.478;2022-09-02T07:15:02;100638.13;;;25.11;35.04
50464;BME280;62167;38.552;-121.478;2022-09-02T07:17:28;100644.97;;;25.08;35.06
50464;BME280;62167;38.552;-121.478;2022-09-02T07:19:54;100629.78;;;25.06;34.97
50464;BME280;62167;38.552;-121.478;2022-09-02T07:22:23;100636.34;;;25.00;34.21
50464;BME280;62167;38.552;-121.478;2022-09-02T07:24:49;100638.25;;;24.94;35.95
50464;BME280;62167;38.552;-121.478;2022-09-02T07:27:15;100645.31;;;24.85;34.89
50464;BME280;62167;38.552;-121.478;2022-09-02T07:29:41;100641.69;;;24.79;34.47
50464;BME280;62167;38.552;-121.478;2022-09-02T07:32:08;100644.66;;;24.73;34.39
50464;BME280;62167;38.552;-121.478;2022-09-02T07:34:34;100644.88;;;24.66;34.79
50464;BME280;62167;38.552;-121.478;2022-09-02T07:37:00;100641.25;;;24.61;36.06
50464;BME280;62167;38.552;-121.478;2022-09-02T07:39:26;100653.53;;;24.53;35.21
50464;BME280;62167;38.552;-121.478;2022-09-02T07:41:56;100653.50;;;24.48;35.07
50464;BME280;62167;38.552;-121.478;2022-09-02T07:44:22;100661.69;;;24.43;36.13
50464;BME280;62167;38.552;-121.478;2022-09-02T07:46:48;100663.84;;;24.36;36.05
50464;BME280;62167;38.552;-121.478;2022-09-02T07:49:14;100654.66;;;24.30;35.99
50464;BME280;62167;38.552;-121.478;2022-09-02T07:51:41;100665.63;;;24.25;36.16
50464;BME280;62167;38.552;-121.478;2022-09-02T07:54:09;100661.16;;;24.19;36.04
50464;BME280;62167;38.552;-121.478;2022-09-02T07:56:35;100659.41;;;24.13;35.85
50464;BME280;62167;38.552;-121.478;2022-09-02T07:59:01;100660.75;;;24.10;36.03
50464;BME280;62167;38.552;-121.478;2022-09-02T08:01:27;100665.94;;;24.06;36.57
50464;BME280;62167;38.552;-121.478;2022-09-02T08:03:53;100660.38;;;24.01;37.03
50464;BME280;62167;38.552;-121.478;2022-09-02T08:06:19;100664.91;;;23.91;36.22
50464;BME280;62167;38.552;-121.478;2022-09-02T08:08:48;100672.59;;;23.89;37.60
50464;BME280;62167;38.552;-121.478;2022-09-02T08:11:14;100668.44;;;23.86;37.03
50464;BME280;62167;38.552;-121.478;2022-09-02T08:13:40;100676.94;;;23.85;37.02
50464;BME280;62167;38.552;-121.478;2022-09-02T08:16:06;100668.88;;;23.78;37.47
50464;BME280;62167;38.552;-121.478;2022-09-02T08:18:32;100677.91;;;23.73;37.62
50464;BME280;62167;38.552;-121.478;2022-09-02T08:20:58;100676.47;;;23.71;36.78
50464;BME280;62167;38.552;-121.478;2022-09-02T08:23:23;100679.41;;;23.64;37.45
50464;BME280;62167;38.552;-121.478;2022-09-02T08:25:49;100668.81;;;23.56;37.74
50464;BME280;62167;38.552;-121.478;2022-09-02T08:28:15;100668.50;;;23.52;37.98
50464;BME280;62167;38.552;-121.478;2022-09-02T08:30:41;100668.41;;;23.47;37.77
50464;BME280;62167;38.552;-121.478;2022-09-02T08:33:07;100673.31;;;23.45;38.28
50464;BME280;62167;38.552;-121.478;2022-09-02T08:35:32;100672.41;;;23.40;38.69
50464;BME280;62167;38.552;-121.478;2022-09-02T08:37:59;100673.44;;;23.34;38.97
50464;BME280;62167;38.552;-121.478;2022-09-02T08:40:27;100658.50;;;23.29;39.06
50464;BME280;62167;38.552;-121.478;2022-09-02T08:42:58;100661.19;;;23.24;39.63
50464;BME280;62167;38.552;-121.478;2022-09-02T08:45:32;100665.38;;;23.27;38.87
50464;BME280;62167;38.552;-121.478;2022-09-02T08:48:35;100669.16;;;23.26;39.17
50464;BME280;62167;38.552;-121.478;2022-09-02T08:50:54;100674.59;;;23.21;38.72
50464;BME280;62167;38.552;-121.478;2022-09-02T08:53:29;100669.28;;;23.14;39.81
50464;BME280;62167;38.552;-121.478;2022-09-02T08:55:57;100675.78;;;23.08;39.79
50464;BME280;62167;38.552;-121.478;2022-09-02T08:58:26;100669.84;;;22.99;39.98
50464;BME280;62167;38.552;-121.478;2022-09-02T09:03:25;100665.25;;;22.88;40.40
50464;BME280;62167;38.552;-121.478;2022-09-02T09:21:32;100669.25;;;22.52;41.53
50464;BME280;62167;38.552;-121.478;2022-09-02T09:23:59;100674.75;;;22.52;41.84
50464;BME280;62167;38.552;-121.478;2022-09-02T09:26:28;100671.28;;;22.45;41.26
50464;BME280;62167;38.552;-121.478;2022-09-02T09:28:57;100673.47;;;22.43;41.99
50464;BME280;62167;38.552;-121.478;2022-09-02T09:31:27;100665.59;;;22.35;41.32
50464;BME280;62167;38.552;-121.478;2022-09-02T09:34:05;100667.53;;;22.34;41.41
50464;BME280;62167;38.552;-121.478;2022-09-02T09:42:01;100671.41;;;22.21;42.48
50464;BME280;62167;38.552;-121.478;2022-09-02T09:44:35;100676.19;;;22.14;42.39
50464;BME280;62167;38.552;-121.478;2022-09-02T09:47:05;100681.44;;;22.16;43.11
50464;BME280;62167;38.552;-121.478;2022-09-02T09:49:32;100679.19;;;22.13;43.05
50464;BME280;62167;38.552;-121.478;2022-09-02T09:51:59;100683.44;;;22.09;42.52
50464;BME280;62167;38.552;-121.478;2022-09-02T09:54:25;100686.91;;;22.04;42.50
50464;BME280;62167;38.552;-121.478;2022-09-02T09:56:53;100685.00;;;22.05;42.80
50464;BME280;62167;38.552;-121.478;2022-09-02T09:59:36;100688.25;;;22.01;43.02
50464;BME280;62167;38.552;-121.478;2022-09-02T10:02:04;100684.78;;;21.94;42.81
50464;BME280;62167;38.552;-121.478;2022-09-02T10:04:31;100688.28;;;21.90;42.74
50464;BME280;62167;38.552;-121.478;2022-09-02T10:06:58;100698.38;;;21.89;43.56
50464;BME280;62167;38.552;-121.478;2022-09-02T10:09:27;100696.63;;;21.83;43.78
50464;BME280;62167;38.552;-121.478;2022-09-02T10:12:06;100688.38;;;21.83;43.60
50464;BME280;62167;38.552;-121.478;2022-09-02T10:14:37;100679.34;;;21.83;43.72
50464;BME280;62167;38.552;-121.478;2022-09-02T10:17:06;100694.97;;;21.82;42.70
50464;BME280;62167;38.552;-121.478;2022-09-02T10:28:00;100697.94;;;21.69;44.30
50464;BME280;62167;38.552;-121.478;2022-09-02T10:30:54;100694.25;;;21.63;44.12
50464;BME280;62167;38.552;-121.478;2022-09-02T10:34:21;100692.72;;;21.56;44.10
50464;BME280;62167;38.552;-121.478;2022-09-02T10:36:31;100702.75;;;21.50;43.80
50464;BME280;62167;38.552;-121.478;2022-09-02T10:39:03;100695.22;;;21.45;44.13
50464;BME280;62167;38.552;-121.478;2022-09-02T10:41:38;100702.25;;;21.41;44.21
50464;BME280;62167;38.552;-121.478;2022-09-02T10:44:15;100699.75;;;21.40;44.41
50464;BME280;62167;38.552;-121.478;2022-09-02T10:51:48;100698.44;;;21.31;44.28
50464;BME280;62167;38.552;-121.478;2022-09-02T10:54:21;100707.84;;;21.35;44.63
50464;BME280;62167;38.552;-121.478;2022-09-02T10:57:10;100714.03;;;21.30;44.24
50464;BME280;62167;38.552;-121.478;2022-09-02T11:02:12;100702.31;;;21.23;44.12
50464;BME280;62167;38.552;-121.478;2022-09-02T11:04:46;100694.59;;;21.20;44.03
50464;BME280;62167;38.552;-121.478;2022-09-02T11:07:17;100703.88;;;21.19;44.63
50464;BME280;62167;38.552;-121.478;2022-09-02T11:09:53;100693.13;;;21.17;44.35
50464;BME280;62167;38.552;-121.478;2022-09-02T11:12:30;100699.09;;;21.14;45.19
50464;BME280;62167;38.552;-121.478;2022-09-02T11:17:46;100696.94;;;21.05;44.36
50464;BME280;62167;38.552;-121.478;2022-09-02T11:25:46;100696.31;;;21.03;43.43
50464;BME280;62167;38.552;-121.478;2022-09-02T11:31:00;100700.63;;;20.98;44.75
50464;BME280;62167;38.552;-121.478;2022-09-02T11:33:42;100696.19;;;20.97;44.41
50464;BME280;62167;38.552;-121.478;2022-09-02T11:36:10;100698.59;;;20.94;44.16
50464;BME280;62167;38.552;-121.478;2022-09-02T11:38:44;100697.94;;;20.80;44.53
50464;BME280;62167;38.552;-121.478;2022-09-02T11:41:22;100708.75;;;20.75;44.44
50464;BME280;62167;38.552;-121.478;2022-09-02T11:46:32;100703.03;;;20.77;44.09
50464;BME280;62167;38.552;-121.478;2022-09-02T11:49:04;100715.91;;;20.76;44.42
50464;BME280;62167;38.552;-121.478;2022-09-02T11:54:03;100718.63;;;20.76;44.06
50464;BME280;62167;38.552;-121.478;2022-09-02T11:56:34;100712.78;;;20.72;44.46
50464;BME280;62167;38.552;-121.478;2022-09-02T11:59:01;100714.09;;;20.70;44.09
50464;BME280;62167;38.552;-121.478;2022-09-02T12:09:45;100707.97;;;20.56;44.43
50464;BME280;62167;38.552;-121.478;2022-09-02T12:20:07;100725.25;;;20.38;43.93
50464;BME280;62167;38.552;-121.478;2022-09-02T12:22:35;100718.06;;;20.37;44.02
50464;BME280;62167;38.552;-121.478;2022-09-02T12:27:49;100725.84;;;20.40;43.61
50464;BME280;62167;38.552;-121.478;2022-09-02T12:31:07;100723.34;;;20.39;44.03
50464;BME280;62167;38.552;-121.478;2022-09-02T12:33:10;100730.72;;;20.38;43.14
50464;BME280;62167;38.552;-121.478;2022-09-02T12:38:16;100728.50;;;20.47;42.01
50464;BME280;62167;38.552;-121.478;2022-09-02T12:40:52;100729.34;;;20.47;42.43
50464;BME280;62167;38.552;-121.478;2022-09-02T12:43:21;100727.88;;;20.45;42.65
50464;BME280;62167;38.552;-121.478;2022-09-02T12:45:50;100726.59;;;20.47;41.96
50464;BME280;62167;38.552;-121.478;2022-09-02T12:48:18;100729.97;;;20.50;42.04
50464;BME280;62167;38.552;-121.478;2022-09-02T12:50:56;100731.63;;;20.51;43.09
50464;BME280;62167;38.552;-121.478;2022-09-02T12:55:58;100731.06;;;20.42;42.95
50464;BME280;62167;38.552;-121.478;2022-09-02T12:58:35;100734.50;;;20.37;43.16
50464;BME280;62167;38.552;-121.478;2022-09-02T13:01:11;100740.44;;;20.34;42.86
50464;BME280;62167;38.552;-121.478;2022-09-02T13:14:07;100747.19;;;20.32;43.32
50464;BME280;62167;38.552;-121.478;2022-09-02T13:34:40;100773.66;;;20.19;45.51
50464;BME280;62167;38.552;-121.478;2022-09-02T13:37:25;100770.78;;;20.14;45.45
50464;BME280;62167;38.552;-121.478;2022-09-02T13:39:52;100783.84;;;20.12;45.94
50464;BME280;62167;38.552;-121.478;2022-09-02T13:42:18;100773.13;;;20.11;45.65
50464;BME280;62167;38.552;-121.478;2022-09-02T13:44:47;100783.69;;;20.07;45.50
50464;BME280;62167;38.552;-121.478;2022-09-02T13:47:14;100780.41;;;19.99;45.70
50464;BME280;62167;38.552;-121.478;2022-09-02T13:49:41;100784.81;;;20.00;46.05
50464;BME280;62167;38.552;-121.478;2022-09-02T13:52:17;100781.47;;;19.98;45.82
50464;BME280;62167;38.552;-121.478;2022-09-02T13:54:44;100780.25;;;19.93;45.93
50464;BME280;62167;38.552;-121.478;2022-09-02T13:57:11;100792.69;;;19.89;46.00
50464;BME280;62167;38.552;-121.478;2022-09-02T13:59:39;100796.03;;;19.91;46.36
50464;BME280;62167;38.552;-121.478;2022-09-02T14:02:22;100799.22;;;19.88;46.58
50464;BME280;62167;38.552;-121.478;2022-09-02T14:04:50;100803.03;;;19.87;46.73
50464;BME280;62167;38.552;-121.478;2022-09-02T14:07:21;100800.16;;;19.82;46.54
50464;BME280;62167;38.552;-121.478;2022-09-02T14:09:49;100805.59;;;19.82;46.69
50464;BME280;62167;38.552;-121.478;2022-09-02T14:12:15;100809.78;;;19.85;47.45
50464;BME280;62167;38.552;-121.478;2022-09-02T14:14:41;100811.91;;;19.83;47.27